Airfield :
LOGIN :

Register | Disclaimer

   EN    FR    IT 

 










Legend :    VFR   Marginal VFR   IFR   Intensive IFR   Very Intensive IFR
Visi :
Ceiling :
>= 8 km
>= 3000ft
5 to 8 km
1000 to 3000 ft
1500m to 5 km
500 to 1000 ft
800 to 1500m
200 to 500 ft
< 800m
< 200 ft
Symbols :   Thunderstorms  Fog  Heavy snow  Heavy precipitations  Wind > 20 kt
SIGMETs :     Misc.  Thunderstorms  Icing  Turbulence  Mountain Waves  Volcanic Ashes







- Airport Elevation : 0 ft


ETEB - Ansbach Army Heliport

CURRENT METAR :
  • 181956Z AUTO 03006KT 9999 CLR 13/09 A3019 RMK AO2 SLP236 T01300085 $

EXPIRED METARs :
  • 181856Z AUTO 03007KT 9999 CLR 14/08 A3017 RMK AO2 SLP231 T01400084 $
  • 181756Z AUTO 02005KT 9999 CLR 15/09 A3016 RMK AO2 SLP228 T01500087 10185 20150 53013 $

TAF TAF ETEB
Valid from the 18 at 13:00 until the 19 at 19:00 UTC


181308Z 1813/1919 03009KT 9999 SKC QNH3009INS
BECMG 1820/1821 VRB06KT 5000 BR SKC QNH3020INS
BECMG 1907/1908 05006KT 9999 NSW SCT030 QNH3020INS TX20/1813Z TN04/1905Z
No reported NOTAMs for that airfield.



MET'MAP, your aeronautical weather chart ! - Copyright ORBIFLY December 2007 - Disclaimer

ORBIFLY MET'MAP TEAM :

Programming & Development : Alexandra Zaïnal
Concept & Development : Baudouin d'Aumeries
Co-Development & Prog : Marc-Olivier Méhu
Technical & hardware support : Manuel Goepfert

Contact : metmap@orbifly.com




SOURCES & CREDITS :

   NOAA